Time;durP1;ratioP1;P1;durP2;ratioP2;P2;SDS_P1;SDS_P2;PMS_P1;PMS_P2;Temp;Humidity;BMP_temperature;BMP_pressure;BME280_temperature;BME280_humidity;BME280_pressure;Samples;Min_cycle;Max_cycle;Signal;HPM_P1;HPM_P2
2023/01/17 00:00:26;;;;;;;0.20;0.20;;;;;;;;;;4986119;28;20674;-75
2023/01/17 00:02:51;;;;;;;0.20;0.20;;;;;;;;;;4971684;28;20037;-75
2023/01/17 00:10:44;;;;;;;0.20;0.20;;;;;;;;;;4990547;28;20438;-76
2023/01/17 00:13:09;;;;;;;0.20;0.20;;;;;;;;;;4988071;28;20034;-78
2023/01/17 00:15:36;;;;;;;0.22;0.22;;;;;;;;;;4985836;28;20267;-75
2023/01/17 00:18:01;;;;;;;0.20;0.20;;;;;;;;;;4990308;28;20019;-76
2023/01/17 00:26:01;;;;;;;0.25;0.25;;;;;;;;;;4994881;28;20053;-77
2023/01/17 01:34:56;;;;;;;0.20;0.20;;;;;;;;;;4987608;28;20032;-76
2023/01/17 01:37:21;;;;;;;0.20;0.20;;;;;;;;;;4990817;28;20030;-76
2023/01/17 01:39:46;;;;;;;0.20;0.20;;;;;;;;;;4985303;28;20041;-76
2023/01/17 01:42:15;;;;;;;0.20;0.20;;;;;;;;;;4994189;28;20030;-77
2023/01/17 01:44:45;;;;;;;0.20;0.20;;;;;;;;;;4988710;28;20743;-76
2023/01/17 01:47:12;;;;;;;0.20;0.20;;;;;;;;;;4993596;28;20025;-76
2023/01/17 01:49:37;;;;;;;0.20;0.20;;;;;;;;;;4994301;28;20025;-76
2023/01/17 01:52:03;;;;;;;0.20;0.20;;;;;;;;;;4998034;28;20053;-76
2023/01/17 01:54:40;;;;;;;0.20;0.20;;;;;;;;;;4988492;28;20029;-76
2023/01/17 01:57:07;;;;;;;0.20;0.20;;;;;;;;;;4985558;28;20033;-76
2023/01/17 01:59:32;;;;;;;0.20;0.20;;;;;;;;;;4986006;28;20084;-77
2023/01/17 02:01:58;;;;;;;0.20;0.20;;;;;;;;;;4988880;28;20065;-76
2023/01/17 02:04:24;;;;;;;0.20;0.20;;;;;;;;;;4990235;28;20030;-76
2023/01/17 02:07:12;;;;;;;0.20;0.20;;;;;;;;;;4978421;28;20470;-77
2023/01/17 02:09:37;;;;;;;0.20;0.20;;;;;;;;;;4980495;28;20046;-77
2023/01/17 02:12:03;;;;;;;0.20;0.20;;;;;;;;;;4993735;28;20054;-77
2023/01/17 02:14:28;;;;;;;0.20;0.20;;;;;;;;;;4992049;28;20063;-77
2023/01/17 02:17:00;;;;;;;0.20;0.20;;;;;;;;;;4989259;28;20149;-78
2023/01/17 02:19:40;;;;;;;0.20;0.20;;;;;;;;;;4987949;28;20487;-77
2023/01/17 02:22:20;;;;;;;0.20;0.20;;;;;;;;;;4982502;28;20030;-77
2023/01/17 02:24:45;;;;;;;0.20;0.20;;;;;;;;;;4987588;28;20018;-77
2023/01/17 02:27:21;;;;;;;0.20;0.20;;;;;;;;;;4984356;28;20037;-76
2023/01/17 02:30:05;;;;;;;0.20;0.20;;;;;;;;;;4994442;28;20686;-77
2023/01/17 02:32:43;;;;;;;0.20;0.20;;;;;;;;;;4989622;28;20025;-78
2023/01/17 02:35:08;;;;;;;0.20;0.20;;;;;;;;;;4991089;28;20113;-77
2023/01/17 02:37:43;;;;;;;0.20;0.20;;;;;;;;;;4986446;28;20046;-76
2023/01/17 02:40:13;;;;;;;0.20;0.20;;;;;;;;;;4984067;28;20315;-76
2023/01/17 02:42:44;;;;;;;0.20;0.20;;;;;;;;;;4986569;28;20448;-76
2023/01/17 02:45:13;;;;;;;0.20;0.20;;;;;;;;;;4985573;28;20499;-78
2023/01/17 02:47:38;;;;;;;0.20;0.20;;;;;;;;;;4985636;28;20350;-76
2023/01/17 02:50:09;;;;;;;0.20;0.20;;;;;;;;;;4986236;28;20030;-76
2023/01/17 02:52:34;;;;;;;0.20;0.20;;;;;;;;;;4977108;28;20026;-76
2023/01/17 02:55:06;;;;;;;0.20;0.20;;;;;;;;;;4984804;28;20026;-75
2023/01/17 02:57:53;;;;;;;0.20;0.20;;;;;;;;;;4985281;28;20299;-77
2023/01/17 03:00:37;;;;;;;0.30;0.30;;;;;;;;;;4982922;28;20125;-77
2023/01/17 03:03:09;;;;;;;0.20;0.20;;;;;;;;;;4976909;28;20030;-76
2023/01/17 03:05:47;;;;;;;0.20;0.20;;;;;;;;;;4983304;28;20049;-77
2023/01/17 03:08:13;;;;;;;0.20;0.20;;;;;;;;;;4984690;28;20022;-76
2023/01/17 03:10:40;;;;;;;0.20;0.20;;;;;;;;;;4985157;28;20019;-77
2023/01/17 03:13:05;;;;;;;0.20;0.20;;;;;;;;;;4980612;28;20208;-77
2023/01/17 03:15:30;;;;;;;0.20;0.20;;;;;;;;;;4983335;28;20023;-77
2023/01/17 03:17:59;;;;;;;0.20;0.20;;;;;;;;;;4986405;28;20135;-77
2023/01/17 03:20:24;;;;;;;0.20;0.20;;;;;;;;;;4995416;28;20030;-77
2023/01/17 03:22:49;;;;;;;0.20;0.20;;;;;;;;;;4998983;28;20057;-77
2023/01/17 03:25:15;;;;;;;0.20;0.20;;;;;;;;;;4993823;28;20076;-77
2023/01/17 03:27:41;;;;;;;0.20;0.20;;;;;;;;;;4988337;28;20026;-77
2023/01/17 03:30:06;;;;;;;0.20;0.20;;;;;;;;;;4983874;28;20035;-77
2023/01/17 03:32:32;;;;;;;0.20;0.20;;;;;;;;;;4988740;28;20057;-77
2023/01/17 03:34:57;;;;;;;0.30;0.30;;;;;;;;;;4984765;28;20037;-77
2023/01/17 03:37:22;;;;;;;0.20;0.20;;;;;;;;;;4992239;28;20329;-77
2023/01/17 03:39:47;;;;;;;0.20;0.20;;;;;;;;;;4991518;28;20050;-76
2023/01/17 03:42:12;;;;;;;0.20;0.20;;;;;;;;;;4991851;28;20121;-77
2023/01/17 03:44:37;;;;;;;0.17;0.17;;;;;;;;;;4987810;28;20597;-77
2023/01/17 03:47:03;;;;;;;0.20;0.20;;;;;;;;;;4988493;28;20286;-77
2023/01/17 03:49:28;;;;;;;0.20;0.20;;;;;;;;;;4980048;28;20635;-76
2023/01/17 03:51:53;;;;;;;0.20;0.20;;;;;;;;;;4986186;28;20477;-76
2023/01/17 03:54:18;;;;;;;0.30;0.30;;;;;;;;;;4989449;28;20275;-76
2023/01/17 03:56:43;;;;;;;0.20;0.20;;;;;;;;;;4984069;28;20022;-76
2023/01/17 03:59:08;;;;;;;0.20;0.20;;;;;;;;;;4984862;28;20729;-77
2023/01/17 04:01:34;;;;;;;0.20;0.20;;;;;;;;;;4990884;28;20267;-76
2023/01/17 04:03:59;;;;;;;0.20;0.20;;;;;;;;;;4997103;28;20022;-75
2023/01/17 04:06:24;;;;;;;0.20;0.20;;;;;;;;;;4998995;28;20133;-76
2023/01/17 04:08:49;;;;;;;0.20;0.20;;;;;;;;;;4990624;28;20026;-75
2023/01/17 04:11:14;;;;;;;0.20;0.20;;;;;;;;;;4998794;28;20781;-75
2023/01/17 04:13:39;;;;;;;0.20;0.20;;;;;;;;;;4983201;28;20288;-75
2023/01/17 04:16:05;;;;;;;0.22;0.22;;;;;;;;;;4996049;28;20384;-76
2023/01/17 04:18:30;;;;;;;0.20;0.20;;;;;;;;;;4983797;28;20508;-76
2023/01/17 04:20:55;;;;;;;0.20;0.20;;;;;;;;;;4987870;28;20090;-75
2023/01/17 04:23:20;;;;;;;0.20;0.20;;;;;;;;;;4982305;28;20026;-76
2023/01/17 04:25:46;;;;;;;0.20;0.20;;;;;;;;;;4986246;28;20026;-75
2023/01/17 04:28:11;;;;;;;0.20;0.20;;;;;;;;;;4990208;28;20437;-76
2023/01/17 04:30:36;;;;;;;0.20;0.20;;;;;;;;;;4992343;28;20503;-75
2023/01/17 04:33:02;;;;;;;0.20;0.20;;;;;;;;;;4993733;28;20042;-76
2023/01/17 04:35:30;;;;;;;0.20;0.20;;;;;;;;;;4991211;28;20026;-75
2023/01/17 04:37:55;;;;;;;0.20;0.20;;;;;;;;;;4987678;28;20381;-75
2023/01/17 04:40:21;;;;;;;0.20;0.20;;;;;;;;;;4993020;28;20027;-75
2023/01/17 04:42:46;;;;;;;0.20;0.20;;;;;;;;;;4978010;28;20065;-75
2023/01/17 04:45:12;;;;;;;0.20;0.20;;;;;;;;;;4980425;28;20057;-75
2023/01/17 04:47:37;;;;;;;0.20;0.20;;;;;;;;;;4989126;28;20022;-75
2023/01/17 04:50:02;;;;;;;0.20;0.20;;;;;;;;;;4989399;28;20404;-75
2023/01/17 04:52:27;;;;;;;0.20;0.20;;;;;;;;;;4981855;28;20583;-76
2023/01/17 04:54:52;;;;;;;0.28;0.28;;;;;;;;;;4982591;28;20026;-75
2023/01/17 04:57:18;;;;;;;0.20;0.20;;;;;;;;;;4986539;28;20400;-76
2023/01/17 04:59:44;;;;;;;0.22;0.22;;;;;;;;;;4988020;28;20026;-75
2023/01/17 05:02:10;;;;;;;0.20;0.20;;;;;;;;;;4983415;28;20026;-75
2023/01/17 05:04:35;;;;;;;0.25;0.25;;;;;;;;;;4986967;28;20019;-76
2023/01/17 05:07:00;;;;;;;0.20;0.20;;;;;;;;;;4987152;28;20109;-75
2023/01/17 05:09:25;;;;;;;0.20;0.20;;;;;;;;;;4998783;28;20125;-77
2023/01/17 05:11:51;;;;;;;0.20;0.20;;;;;;;;;;4987172;28;20037;-77
2023/01/17 05:14:16;;;;;;;0.20;0.20;;;;;;;;;;4987478;28;20148;-76
2023/01/17 05:16:41;;;;;;;0.30;0.30;;;;;;;;;;4984831;28;20357;-77
2023/01/17 05:19:06;;;;;;;0.20;0.20;;;;;;;;;;4985852;28;20971;-77
2023/01/17 05:21:32;;;;;;;0.20;0.20;;;;;;;;;;4979579;28;20396;-76
2023/01/17 05:23:57;;;;;;;0.20;0.20;;;;;;;;;;4988125;28;20412;-76
2023/01/17 05:26:22;;;;;;;0.20;0.20;;;;;;;;;;4982164;28;20575;-76
2023/01/17 05:28:48;;;;;;;0.20;0.20;;;;;;;;;;4986666;28;20279;-76
2023/01/17 05:31:13;;;;;;;0.20;0.20;;;;;;;;;;4988620;28;20041;-76
2023/01/17 05:33:39;;;;;;;0.20;0.20;;;;;;;;;;4987782;28;20097;-75
2023/01/17 05:36:04;;;;;;;0.20;0.20;;;;;;;;;;4987407;28;20263;-76
2023/01/17 05:38:29;;;;;;;0.20;0.20;;;;;;;;;;4990540;28;20389;-77
2023/01/17 05:40:54;;;;;;;0.20;0.20;;;;;;;;;;4983832;28;20380;-76
2023/01/17 05:43:20;;;;;;;0.20;0.20;;;;;;;;;;4985128;28;20435;-74
2023/01/17 05:45:46;;;;;;;0.20;0.20;;;;;;;;;;4980074;28;20322;-75
2023/01/17 05:48:11;;;;;;;0.20;0.20;;;;;;;;;;4985112;28;20031;-78
2023/01/17 05:50:37;;;;;;;0.20;0.20;;;;;;;;;;4984048;28;20030;-76
2023/01/17 05:53:03;;;;;;;0.20;0.20;;;;;;;;;;4985426;28;20351;-76
2023/01/17 05:55:29;;;;;;;0.20;0.20;;;;;;;;;;4980748;28;20389;-76
2023/01/17 05:57:55;;;;;;;0.30;0.30;;;;;;;;;;4985260;28;20318;-76
2023/01/17 06:00:20;;;;;;;0.28;0.28;;;;;;;;;;4984049;28;20101;-75
2023/01/17 06:02:46;;;;;;;0.20;0.20;;;;;;;;;;4983787;28;20053;-76
2023/01/17 06:05:12;;;;;;;0.20;0.20;;;;;;;;;;4986076;28;20101;-77
2023/01/17 06:07:37;;;;;;;0.20;0.20;;;;;;;;;;4979053;28;20476;-77
2023/01/17 06:10:03;;;;;;;0.20;0.20;;;;;;;;;;4981902;28;20065;-76
2023/01/17 06:12:28;;;;;;;0.20;0.20;;;;;;;;;;4992756;28;20547;-77
2023/01/17 06:14:53;;;;;;;0.25;0.25;;;;;;;;;;4972202;28;20034;-76
2023/01/17 06:17:18;;;;;;;0.20;0.20;;;;;;;;;;4983527;28;20454;-76
2023/01/17 06:19:44;;;;;;;0.20;0.20;;;;;;;;;;4985444;28;20075;-78
2023/01/17 06:22:09;;;;;;;0.20;0.20;;;;;;;;;;4994869;28;20149;-76
2023/01/17 06:24:34;;;;;;;0.20;0.20;;;;;;;;;;4984750;28;20072;-77
2023/01/17 06:27:00;;;;;;;0.20;0.20;;;;;;;;;;4991456;28;20084;-77
2023/01/17 06:29:25;;;;;;;0.20;0.20;;;;;;;;;;4984615;28;20037;-76
2023/01/17 06:31:50;;;;;;;0.20;0.20;;;;;;;;;;4976773;28;20026;-77
2023/01/17 06:34:16;;;;;;;0.20;0.20;;;;;;;;;;4985106;28;20574;-77
2023/01/17 06:36:41;;;;;;;0.20;0.20;;;;;;;;;;4980017;28;20419;-76
2023/01/17 06:39:08;;;;;;;0.30;0.30;;;;;;;;;;4985085;28;20035;-77
2023/01/17 06:41:33;;;;;;;0.30;0.30;;;;;;;;;;4985353;28;20026;-77
2023/01/17 06:43:58;;;;;;;0.20;0.20;;;;;;;;;;4982101;28;20032;-76
2023/01/17 06:46:24;;;;;;;0.20;0.20;;;;;;;;;;4981515;28;20030;-76
2023/01/17 06:48:49;;;;;;;0.20;0.20;;;;;;;;;;4987378;28;20504;-77
2023/01/17 06:51:15;;;;;;;0.20;0.20;;;;;;;;;;4976459;28;20036;-77
2023/01/17 06:53:40;;;;;;;0.20;0.20;;;;;;;;;;4973264;28;20026;-77
2023/01/17 06:56:05;;;;;;;0.20;0.20;;;;;;;;;;4981906;28;20068;-77
2023/01/17 06:58:30;;;;;;;0.20;0.20;;;;;;;;;;4990028;28;20169;-77
2023/01/17 07:00:56;;;;;;;0.20;0.20;;;;;;;;;;4974261;28;20037;-77
2023/01/17 07:03:22;;;;;;;0.20;0.20;;;;;;;;;;4979562;28;20531;-77
2023/01/17 07:05:48;;;;;;;0.20;0.20;;;;;;;;;;4992322;28;20366;-78
2023/01/17 07:08:13;;;;;;;0.30;0.30;;;;;;;;;;4998970;28;20337;-77
2023/01/17 07:10:38;;;;;;;0.20;0.20;;;;;;;;;;4984221;28;20026;-77
2023/01/17 07:13:03;;;;;;;0.20;0.20;;;;;;;;;;4983287;28;20092;-76
2023/01/17 07:15:28;;;;;;;0.30;0.30;;;;;;;;;;4987076;28;20263;-77
2023/01/17 07:17:54;;;;;;;0.25;0.25;;;;;;;;;;4981748;28;20069;-76
2023/01/17 07:20:19;;;;;;;0.30;0.30;;;;;;;;;;4975156;28;20471;-76
2023/01/17 07:22:44;;;;;;;0.20;0.20;;;;;;;;;;4987150;28;20053;-76
2023/01/17 07:25:09;;;;;;;0.25;0.25;;;;;;;;;;4972375;28;20030;-76
2023/01/17 07:27:35;;;;;;;0.30;0.30;;;;;;;;;;4980528;28;20022;-75
2023/01/17 07:30:00;;;;;;;0.27;0.27;;;;;;;;;;4974590;28;20030;-77
2023/01/17 07:32:25;;;;;;;0.22;0.22;;;;;;;;;;4980085;28;20371;-77
2023/01/17 07:34:50;;;;;;;0.20;0.20;;;;;;;;;;4978292;28;20497;-77
2023/01/17 07:37:15;;;;;;;0.20;0.20;;;;;;;;;;4984063;28;20030;-75
2023/01/17 07:39:40;;;;;;;0.30;0.30;;;;;;;;;;4989982;28;20064;-76
2023/01/17 07:42:07;;;;;;;0.30;0.30;;;;;;;;;;4988752;28;20033;-76
2023/01/17 07:44:33;;;;;;;0.20;0.20;;;;;;;;;;4976017;28;20030;-75
2023/01/17 07:46:58;;;;;;;0.20;0.20;;;;;;;;;;4979897;28;20037;-77
2023/01/17 07:49:23;;;;;;;0.30;0.30;;;;;;;;;;4988718;28;20516;-77
2023/01/17 07:51:48;;;;;;;0.20;0.20;;;;;;;;;;4983749;28;20041;-77
2023/01/17 07:54:13;;;;;;;0.20;0.20;;;;;;;;;;4979050;28;20294;-76
2023/01/17 07:56:39;;;;;;;0.22;0.22;;;;;;;;;;4977369;28;20014;-75
2023/01/17 07:59:05;;;;;;;0.30;0.30;;;;;;;;;;4983908;28;20418;-77
2023/01/17 08:01:30;;;;;;;0.30;0.30;;;;;;;;;;4984361;28;20053;-76
2023/01/17 08:03:55;;;;;;;0.30;0.30;;;;;;;;;;4986287;28;20022;-76
2023/01/17 08:06:22;;;;;;;0.30;0.30;;;;;;;;;;4988532;28;20377;-76
2023/01/17 08:08:48;;;;;;;0.30;0.30;;;;;;;;;;4991739;28;20022;-75
2023/01/17 08:11:13;;;;;;;0.30;0.30;;;;;;;;;;4984854;28;20421;-76
2023/01/17 08:13:39;;;;;;;0.30;0.30;;;;;;;;;;4990028;28;20019;-76
2023/01/17 08:16:04;;;;;;;0.30;0.30;;;;;;;;;;4983215;28;20026;-76
2023/01/17 08:18:29;;;;;;;0.20;0.20;;;;;;;;;;4991155;28;20133;-75
2023/01/17 08:20:55;;;;;;;0.30;0.30;;;;;;;;;;4982518;28;20030;-75
2023/01/17 08:23:20;;;;;;;0.20;0.20;;;;;;;;;;4982094;28;20031;-76
2023/01/17 08:25:45;;;;;;;0.30;0.30;;;;;;;;;;4982799;28;20030;-76
2023/01/17 08:28:11;;;;;;;0.20;0.20;;;;;;;;;;4990639;28;20539;-75
2023/01/17 08:30:36;;;;;;;0.22;0.22;;;;;;;;;;4981095;28;20021;-76
2023/01/17 08:33:01;;;;;;;0.30;0.30;;;;;;;;;;4976878;28;20022;-75
2023/01/17 08:35:26;;;;;;;0.30;0.30;;;;;;;;;;4982627;28;20065;-76
2023/01/17 08:37:53;;;;;;;0.20;0.20;;;;;;;;;;4990558;28;20030;-76
2023/01/17 08:40:18;;;;;;;0.30;0.30;;;;;;;;;;4986855;28;20030;-76
2023/01/17 08:42:43;;;;;;;0.20;0.20;;;;;;;;;;4981350;28;20029;-75
2023/01/17 08:45:09;;;;;;;0.20;0.20;;;;;;;;;;4987305;28;20529;-76
2023/01/17 08:47:35;;;;;;;0.30;0.30;;;;;;;;;;4986446;28;20076;-75
2023/01/17 08:50:00;;;;;;;0.20;0.20;;;;;;;;;;4988636;28;20339;-75
2023/01/17 08:52:26;;;;;;;0.30;0.30;;;;;;;;;;4981784;28;20022;-75
2023/01/17 08:54:52;;;;;;;0.30;0.30;;;;;;;;;;4988747;28;20045;-74
2023/01/17 08:57:18;;;;;;;0.30;0.30;;;;;;;;;;4980314;28;20058;-75
2023/01/17 08:59:43;;;;;;;0.30;0.30;;;;;;;;;;4988186;28;20057;-75
2023/01/17 09:02:15;;;;;;;0.20;0.20;;;;;;;;;;4983352;28;20481;-75
2023/01/17 09:04:47;;;;;;;0.20;0.20;;;;;;;;;;4985176;28;20030;-75
2023/01/17 09:07:13;;;;;;;0.30;0.30;;;;;;;;;;4982695;28;21999;-75
2023/01/17 09:09:38;;;;;;;0.20;0.20;;;;;;;;;;4985990;28;20340;-75
2023/01/17 09:12:04;;;;;;;0.20;0.20;;;;;;;;;;4987358;28;20057;-76
2023/01/17 09:14:29;;;;;;;0.20;0.20;;;;;;;;;;4988842;28;20027;-75
2023/01/17 09:16:54;;;;;;;0.30;0.30;;;;;;;;;;4983819;28;20022;-75
2023/01/17 09:19:19;;;;;;;0.20;0.20;;;;;;;;;;4982121;28;20042;-75
2023/01/17 09:21:44;;;;;;;0.20;0.20;;;;;;;;;;4982166;28;20027;-74
2023/01/17 09:24:11;;;;;;;0.30;0.30;;;;;;;;;;4984550;28;20470;-75
2023/01/17 09:26:36;;;;;;;0.30;0.30;;;;;;;;;;4983336;28;20061;-75
2023/01/17 09:29:01;;;;;;;0.20;0.20;;;;;;;;;;4980534;28;20241;-75
2023/01/17 09:31:26;;;;;;;0.30;0.30;;;;;;;;;;4985090;28;20022;-75
2023/01/17 09:33:52;;;;;;;0.30;0.30;;;;;;;;;;4978649;28;20030;-75
2023/01/17 09:36:18;;;;;;;0.20;0.20;;;;;;;;;;4981142;28;20037;-75
2023/01/17 09:38:43;;;;;;;0.30;0.30;;;;;;;;;;4992618;28;20026;-76
2023/01/17 09:41:28;;;;;;;0.20;0.20;;;;;;;;;;4994945;28;20026;-76
2023/01/17 09:44:00;;;;;;;0.30;0.30;;;;;;;;;;4969983;28;20042;-76
2023/01/17 09:46:27;;;;;;;0.30;0.30;;;;;;;;;;4979637;28;20327;-77
2023/01/17 09:49:07;;;;;;;0.30;0.30;;;;;;;;;;4981186;28;20037;-76
2023/01/17 09:51:32;;;;;;;0.30;0.30;;;;;;;;;;4978379;28;20030;-76
2023/01/17 09:53:59;;;;;;;0.20;0.20;;;;;;;;;;4995054;28;20570;-76
2023/01/17 09:56:41;;;;;;;0.20;0.20;;;;;;;;;;4982194;28;20023;-76
2023/01/17 09:59:09;;;;;;;0.30;0.30;;;;;;;;;;4986173;28;20121;-75
2023/01/17 10:01:46;;;;;;;0.20;0.20;;;;;;;;;;4992300;28;20025;-76
2023/01/17 10:04:35;;;;;;;0.20;0.20;;;;;;;;;;4995352;28;20030;-75
2023/01/17 10:07:10;;;;;;;0.20;0.20;;;;;;;;;;4982504;28;20070;-75
2023/01/17 10:09:56;;;;;;;0.20;0.20;;;;;;;;;;4979161;28;20038;-75
2023/01/17 10:12:30;;;;;;;0.20;0.20;;;;;;;;;;4969279;28;20029;-75
2023/01/17 10:14:55;;;;;;;;;;;;;;;;;;4981898;28;20142;-75
2023/01/17 10:17:29;;;;;;;0.20;0.20;;;;;;;;;;4983068;28;19906;-75
2023/01/17 10:20:02;;;;;;;0.30;0.30;;;;;;;;;;4976488;28;20069;-74
2023/01/17 10:22:37;;;;;;;0.20;0.20;;;;;;;;;;4980308;28;20053;-75
2023/01/17 10:25:11;;;;;;;0.20;0.20;;;;;;;;;;4974922;28;20022;-74
2023/01/17 10:27:39;;;;;;;0.20;0.20;;;;;;;;;;4979660;28;20057;-74
2023/01/17 10:30:13;;;;;;;0.20;0.20;;;;;;;;;;4981125;28;20033;-75
2023/01/17 10:32:41;;;;;;;0.30;0.30;;;;;;;;;;4972837;28;20089;-74
2023/01/17 10:35:15;;;;;;;0.20;0.20;;;;;;;;;;4984425;28;20042;-74
2023/01/17 10:37:42;;;;;;;0.20;0.20;;;;;;;;;;4988823;28;20018;-75
2023/01/17 10:40:31;;;;;;;0.20;0.20;;;;;;;;;;4987467;28;20057;-74
2023/01/17 10:42:59;;;;;;;0.13;0.13;;;;;;;;;;4976521;28;20069;-74
2023/01/17 10:45:27;;;;;;;0.20;0.20;;;;;;;;;;4982615;28;20096;-74
2023/01/17 10:48:13;;;;;;;0.20;0.20;;;;;;;;;;4992576;28;20050;-75
2023/01/17 10:50:46;;;;;;;0.30;0.20;;;;;;;;;;4982230;28;20474;-72
2023/01/17 10:53:21;;;;;;;0.20;0.20;;;;;;;;;;4982828;28;20062;-72
2023/01/17 10:55:52;;;;;;;0.20;0.20;;;;;;;;;;4991095;28;20033;-74
2023/01/17 10:58:17;;;;;;;0.20;0.20;;;;;;;;;;4992621;28;20022;-75
2023/01/17 11:01:09;;;;;;;0.13;0.13;;;;;;;;;;4978014;28;20497;-75
2023/01/17 11:03:34;;;;;;;0.10;0.10;;;;;;;;;;4970921;28;20042;-74
2023/01/17 11:06:13;;;;;;;0.20;0.20;;;;;;;;;;4978332;28;20402;-74
2023/01/17 11:09:10;;;;;;;0.20;0.20;;;;;;;;;;4978819;28;20026;-74
2023/01/17 11:11:42;;;;;;;0.20;0.20;;;;;;;;;;4962328;28;20041;-74
2023/01/17 11:14:16;;;;;;;0.20;0.20;;;;;;;;;;4981526;28;20022;-74
2023/01/17 11:16:42;;;;;;;0.17;0.17;;;;;;;;;;4980074;28;20032;-74
2023/01/17 11:19:13;;;;;;;0.10;0.10;;;;;;;;;;4977241;28;20035;-75
2023/01/17 11:21:47;;;;;;;0.20;0.20;;;;;;;;;;4981354;28;20049;-74
2023/01/17 11:24:16;;;;;;;0.20;0.20;;;;;;;;;;4977178;28;20031;-74
2023/01/17 11:26:48;;;;;;;0.10;0.10;;;;;;;;;;4975442;28;20145;-74
2023/01/17 11:29:31;;;;;;;0.10;0.10;;;;;;;;;;4982581;28;20529;-74
2023/01/17 11:32:15;;;;;;;0.20;0.20;;;;;;;;;;4976796;28;20029;-74
2023/01/17 11:34:40;;;;;;;0.20;0.20;;;;;;;;;;4978190;28;20526;-74
2023/01/17 11:37:18;;;;;;;0.20;0.20;;;;;;;;;;4976336;28;20858;-74
2023/01/17 11:39:46;;;;;;;0.10;0.10;;;;;;;;;;4977825;28;20298;-74
2023/01/17 11:42:30;;;;;;;0.10;0.10;;;;;;;;;;4998244;28;20031;-74
2023/01/17 11:45:16;;;;;;;0.10;0.10;;;;;;;;;;4984981;28;20172;-75
2023/01/17 11:47:41;;;;;;;0.20;0.20;;;;;;;;;;4992551;28;20683;-74
2023/01/17 11:50:20;;;;;;;0.20;0.20;;;;;;;;;;4992781;28;20080;-74
2023/01/17 11:52:46;;;;;;;0.15;0.15;;;;;;;;;;4984446;28;20381;-74
2023/01/17 11:55:14;;;;;;;0.10;0.10;;;;;;;;;;4982094;28;20030;-74
2023/01/17 11:57:39;;;;;;;0.20;0.20;;;;;;;;;;4989353;28;20404;-74
2023/01/17 12:00:12;;;;;;;0.20;0.20;;;;;;;;;;4982049;28;20030;-74
2023/01/17 12:02:56;;;;;;;0.20;0.20;;;;;;;;;;4980275;28;20085;-74
2023/01/17 12:05:29;;;;;;;0.20;0.20;;;;;;;;;;4987064;28;20034;-74
2023/01/17 12:08:00;;;;;;;0.20;0.20;;;;;;;;;;4988301;28;20031;-74
2023/01/17 12:10:32;;;;;;;0.20;0.20;;;;;;;;;;4990218;28;20033;-75
2023/01/17 12:19:03;;;;;;;0.20;0.20;;;;;;;;;;4974046;28;20053;-74
2023/01/17 12:21:33;;;;;;;0.20;0.20;;;;;;;;;;4978145;28;20049;-74
2023/01/17 12:24:14;;;;;;;0.10;0.10;;;;;;;;;;4993070;28;20026;-74
2023/01/17 12:26:41;;;;;;;0.20;0.20;;;;;;;;;;4987746;28;20027;-74
2023/01/17 12:29:29;;;;;;;0.20;0.20;;;;;;;;;;4985725;28;20381;-74
2023/01/17 12:32:02;;;;;;;0.10;0.10;;;;;;;;;;4978689;28;20152;-74
2023/01/17 12:34:37;;;;;;;0.10;0.10;;;;;;;;;;4985178;28;20026;-74
2023/01/17 12:37:10;;;;;;;0.20;0.20;;;;;;;;;;4982226;28;20475;-74
2023/01/17 12:39:39;;;;;;;0.10;0.10;;;;;;;;;;4988980;28;20030;-74
2023/01/17 12:42:07;;;;;;;0.10;0.10;;;;;;;;;;4984399;28;20117;-74
2023/01/17 12:44:52;;;;;;;0.20;0.20;;;;;;;;;;4985819;28;20117;-74
2023/01/17 12:47:19;;;;;;;0.10;0.10;;;;;;;;;;4988821;28;20042;-74
2023/01/17 12:49:47;;;;;;;0.10;0.10;;;;;;;;;;4992369;28;20029;-74
2023/01/17 12:52:51;;;;;;;0.10;0.10;;;;;;;;;;4988898;28;21957;-74
2023/01/17 12:55:19;;;;;;;0.10;0.10;;;;;;;;;;4961868;28;20113;-74
2023/01/17 12:57:46;;;;;;;0.10;0.10;;;;;;;;;;4962657;28;20046;-74
2023/01/17 13:00:21;;;;;;;0.10;0.10;;;;;;;;;;4975743;28;20161;-75
2023/01/17 13:02:52;;;;;;;0.10;0.10;;;;;;;;;;4983625;28;20042;-74
2023/01/17 13:05:23;;;;;;;0.10;0.10;;;;;;;;;;4989680;28;20041;-74
2023/01/17 13:07:54;;;;;;;0.10;0.10;;;;;;;;;;4999946;28;20367;-74
2023/01/17 13:10:29;;;;;;;0.10;0.10;;;;;;;;;;4986694;28;20030;-75
2023/01/17 13:12:56;;;;;;;0.10;0.10;;;;;;;;;;4982121;28;20026;-75
2023/01/17 13:15:22;;;;;;;0.10;0.10;;;;;;;;;;4986354;28;20026;-74
2023/01/17 13:17:54;;;;;;;0.10;0.10;;;;;;;;;;4983719;28;20019;-75
2023/01/17 13:20:30;;;;;;;0.10;0.10;;;;;;;;;;4991020;28;20026;-75
2023/01/17 13:22:59;;;;;;;0.10;0.10;;;;;;;;;;4982737;28;20370;-75
2023/01/17 13:25:44;;;;;;;0.10;0.10;;;;;;;;;;4996677;28;20027;-74
2023/01/17 13:28:09;;;;;;;0.10;0.10;;;;;;;;;;4984392;28;20169;-74
2023/01/17 13:30:35;;;;;;;0.10;0.10;;;;;;;;;;4993494;28;20022;-74
2023/01/17 13:33:06;;;;;;;0.10;0.10;;;;;;;;;;4989848;28;20030;-74
2023/01/17 13:35:49;;;;;;;0.05;0.05;;;;;;;;;;4977806;28;20481;-75
2023/01/17 13:38:20;;;;;;;0.10;0.10;;;;;;;;;;4995575;28;20053;-75
2023/01/17 13:40:57;;;;;;;0.00;0.00;;;;;;;;;;4990998;28;20022;-75
2023/01/17 13:43:27;;;;;;;0.00;0.00;;;;;;;;;;4986544;28;20026;-74
2023/01/17 13:45:54;;;;;;;0.10;0.10;;;;;;;;;;4980534;28;20545;-74
2023/01/17 13:48:19;;;;;;;0.10;0.10;;;;;;;;;;4980460;28;20023;-74
2023/01/17 13:50:45;;;;;;;0.00;0.00;;;;;;;;;;4995207;28;20045;-74
2023/01/17 13:53:30;;;;;;;0.00;0.00;;;;;;;;;;4980032;28;20031;-74
2023/01/17 13:56:16;;;;;;;0.10;0.10;;;;;;;;;;4989192;28;20473;-74
2023/01/17 13:58:46;;;;;;;0.10;0.10;;;;;;;;;;4977327;28;20045;-74
2023/01/17 14:01:11;;;;;;;0.10;0.10;;;;;;;;;;4980503;28;20022;-74
2023/01/17 14:03:48;;;;;;;0.10;0.10;;;;;;;;;;4982871;28;20030;-74
2023/01/17 14:06:27;;;;;;;0.10;0.10;;;;;;;;;;4982496;28;20023;-74
2023/01/17 14:08:52;;;;;;;0.10;0.10;;;;;;;;;;4994862;28;20034;-74
2023/01/17 14:11:17;;;;;;;0.10;0.10;;;;;;;;;;4981569;28;20034;-74
2023/01/17 14:13:42;;;;;;;0.10;0.10;;;;;;;;;;4974118;28;20018;-74
2023/01/17 14:16:20;;;;;;;0.10;0.10;;;;;;;;;;4981789;28;20664;-74
2023/01/17 14:18:45;;;;;;;0.00;0.00;;;;;;;;;;4983661;28;20385;-74
2023/01/17 14:21:10;;;;;;;0.10;0.10;;;;;;;;;;4977461;28;22076;-74
2023/01/17 14:23:47;;;;;;;0.10;0.10;;;;;;;;;;4982320;28;20264;-74
2023/01/17 14:26:18;;;;;;;0.10;0.10;;;;;;;;;;4983870;28;20064;-74
2023/01/17 14:28:43;;;;;;;0.10;0.10;;;;;;;;;;4984234;28;20049;-74
2023/01/17 14:31:09;;;;;;;0.10;0.10;;;;;;;;;;4983028;28;20034;-74
2023/01/17 14:33:38;;;;;;;0.10;0.10;;;;;;;;;;4981321;28;20271;-74
2023/01/17 14:36:05;;;;;;;0.10;0.10;;;;;;;;;;4986397;28;20497;-74
2023/01/17 14:38:32;;;;;;;0.10;0.10;;;;;;;;;;4988870;28;20104;-74
2023/01/17 14:40:59;;;;;;;0.10;0.10;;;;;;;;;;4978526;28;20023;-74
2023/01/17 14:43:26;;;;;;;0.10;0.10;;;;;;;;;;4983274;28;20124;-74
2023/01/17 14:45:56;;;;;;;0.10;0.10;;;;;;;;;;4982744;28;20057;-73
2023/01/17 14:48:22;;;;;;;0.10;0.10;;;;;;;;;;4983875;28;20060;-74
2023/01/17 14:50:48;;;;;;;0.10;0.10;;;;;;;;;;4980963;28;20022;-73
2023/01/17 14:53:30;;;;;;;0.10;0.10;;;;;;;;;;4981207;28;20022;-74
2023/01/17 14:56:00;;;;;;;0.13;0.13;;;;;;;;;;4977953;28;20030;-74
2023/01/17 14:58:32;;;;;;;0.20;0.20;;;;;;;;;;4984654;28;20061;-73
2023/01/17 15:00:59;;;;;;;0.17;0.17;;;;;;;;;;4992753;28;20023;-74
2023/01/17 15:03:24;;;;;;;0.10;0.10;;;;;;;;;;4985513;28;20026;-74
2023/01/17 15:05:50;;;;;;;0.20;0.20;;;;;;;;;;4981767;28;20866;-73
2023/01/17 15:08:18;;;;;;;0.25;0.25;;;;;;;;;;4988125;28;20025;-73
2023/01/17 15:11:04;;;;;;;0.30;0.30;;;;;;;;;;4980719;28;20528;-74
2023/01/17 15:13:41;;;;;;;0.10;0.10;;;;;;;;;;4980356;28;20072;-73
2023/01/17 15:16:15;;;;;;;0.10;0.10;;;;;;;;;;4987313;28;20484;-74
2023/01/17 15:18:40;;;;;;;0.10;0.10;;;;;;;;;;4979979;28;20034;-74
2023/01/17 15:21:07;;;;;;;0.10;0.10;;;;;;;;;;4980498;28;20026;-74
2023/01/17 15:23:45;;;;;;;0.20;0.20;;;;;;;;;;4993355;28;20033;-73
2023/01/17 15:26:11;;;;;;;0.20;0.20;;;;;;;;;;4980766;28;20022;-73
2023/01/17 15:28:37;;;;;;;0.10;0.10;;;;;;;;;;4977285;28;20022;-74
2023/01/17 15:31:05;;;;;;;0.10;0.10;;;;;;;;;;4973312;28;20319;-74
2023/01/17 15:33:31;;;;;;;0.10;0.10;;;;;;;;;;4993516;28;20412;-74
2023/01/17 15:36:07;;;;;;;0.10;0.10;;;;;;;;;;4975064;28;20385;-74
2023/01/17 15:38:34;;;;;;;0.10;0.10;;;;;;;;;;4988665;28;20465;-74
2023/01/17 15:41:13;;;;;;;0.10;0.10;;;;;;;;;;4978331;28;20034;-74
2023/01/17 15:43:39;;;;;;;0.10;0.10;;;;;;;;;;4976004;28;20030;-74
2023/01/17 15:46:04;;;;;;;0.10;0.10;;;;;;;;;;4993364;28;20032;-73
2023/01/17 15:48:35;;;;;;;0.13;0.13;;;;;;;;;;4992485;28;20049;-73
2023/01/17 15:51:01;;;;;;;0.17;0.17;;;;;;;;;;4981790;28;20030;-74
2023/01/17 15:53:28;;;;;;;0.10;0.10;;;;;;;;;;4979971;28;20030;-73
2023/01/17 15:55:53;;;;;;;0.10;0.10;;;;;;;;;;4983173;28;20031;-73
2023/01/17 15:58:28;;;;;;;0.20;0.20;;;;;;;;;;4990123;28;20068;-73
2023/01/17 16:00:54;;;;;;;0.10;0.10;;;;;;;;;;4977284;28;20038;-73
2023/01/17 16:03:21;;;;;;;0.20;0.20;;;;;;;;;;4975630;28;20019;-73
2023/01/17 16:05:46;;;;;;;0.10;0.10;;;;;;;;;;4980516;28;20022;-74
2023/01/17 16:08:14;;;;;;;0.10;0.10;;;;;;;;;;4973655;28;20077;-73
2023/01/17 16:10:39;;;;;;;0.20;0.20;;;;;;;;;;4984061;28;20029;-74
2023/01/17 16:13:06;;;;;;;0.20;0.20;;;;;;;;;;4986474;28;20025;-74
2023/01/17 16:15:31;;;;;;;0.20;0.20;;;;;;;;;;4977289;28;20018;-73